Time;durP1;ratioP1;P1;durP2;ratioP2;P2;SDS_P1;SDS_P2;PMS_P1;PMS_P2;Temp;Humidity;BMP_temperature;BMP_pressure;BME280_temperature;BME280_humidity;BME280_pressure;Samples;Min_cycle;Max_cycle;Signal;HPM_P1;HPM_P2
2021/11/10 00:00:48;;;;;;;48.90;16.42;;;;;;;9.85;100.00;102598.38;5022989;28;20025;-78
2021/11/10 00:03:14;;;;;;;54.97;17.23;;;;;;;9.85;100.00;102589.56;5028203;28;20025;-75
2021/11/10 00:05:40;;;;;;;46.50;16.25;;;;;;;9.87;100.00;102590.56;5026520;28;20033;-76
2021/11/10 00:08:06;;;;;;;50.28;15.48;;;;;;;9.84;100.00;102593.06;5026618;28;20101;-76
2021/11/10 00:10:32;;;;;;;48.63;14.48;;;;;;;9.85;100.00;102586.94;5029175;28;20093;-78
2021/11/10 00:13:17;;;;;;;47.38;13.02;;;;;;;9.83;100.00;102593.88;5028835;28;20025;-76
2021/11/10 00:15:44;;;;;;;43.78;13.95;;;;;;;9.84;100.00;102598.31;5028162;28;20034;-75
2021/11/10 00:18:09;;;;;;;37.35;12.82;;;;;;;9.84;100.00;102598.31;5021367;28;20033;-76
2021/11/10 00:20:35;;;;;;;46.00;14.25;;;;;;;9.87;100.00;102601.06;5012649;28;20394;-76
2021/11/10 00:23:00;;;;;;;46.47;13.75;;;;;;;9.84;100.00;102596.56;5023634;28;20061;-77
2021/11/10 00:25:25;;;;;;;39.47;12.13;;;;;;;9.86;100.00;102586.13;5017834;28;20488;-77
2021/11/10 00:27:51;;;;;;;37.70;11.88;;;;;;;9.86;100.00;102586.13;5028489;28;20542;-77
2021/11/10 00:30:16;;;;;;;35.20;11.10;;;;;;;9.83;100.00;102578.09;5016778;28;20042;-77
2021/11/10 00:32:41;;;;;;;37.85;13.13;;;;;;;9.83;100.00;102576.34;5032796;28;20040;-76
2021/11/10 00:35:07;;;;;;;41.10;13.25;;;;;;;9.81;100.00;102571.84;5018506;28;20378;-76
2021/11/10 00:37:32;;;;;;;40.42;13.63;;;;;;;9.84;100.00;102572.03;5014395;28;20030;-75
2021/11/10 00:39:58;;;;;;;35.15;14.18;;;;;;;9.85;100.00;102568.53;5023017;28;20018;-77
2021/11/10 00:42:23;;;;;;;39.92;14.75;;;;;;;9.84;100.00;102564.13;5019995;28;20113;-75
2021/11/10 00:44:48;;;;;;;44.85;14.38;;;;;;;9.84;100.00;102566.75;5025501;28;20481;-77
2021/11/10 00:47:14;;;;;;;36.35;12.85;;;;;;;9.83;100.00;102564.94;5016009;28;20025;-76
2021/11/10 00:49:39;;;;;;;40.92;12.55;;;;;;;9.83;100.00;102563.22;5030596;28;20061;-76
2021/11/10 00:52:05;;;;;;;39.60;13.93;;;;;;;9.87;100.00;102572.16;5031037;28;20138;-76
2021/11/10 00:54:32;;;;;;;37.85;14.75;;;;;;;9.84;100.00;102558.88;5035970;28;20063;-75
2021/11/10 00:56:57;;;;;;;39.10;13.13;;;;;;;9.82;100.00;102563.13;5028800;28;20033;-77
2021/11/10 00:59:22;;;;;;;34.72;12.23;;;;;;;9.82;100.00;102560.50;5032866;28;20389;-75
2021/11/10 01:01:48;;;;;;;38.42;13.65;;;;;;;9.79;100.00;102553.38;5029254;28;20037;-76
2021/11/10 01:04:13;;;;;;;37.95;12.35;;;;;;;9.78;100.00;102549.88;5019132;28;20033;-76
2021/11/10 01:06:39;;;;;;;37.03;13.10;;;;;;;9.78;100.00;102555.13;5018293;28;20033;-77
2021/11/10 01:09:05;;;;;;;34.88;12.15;;;;;;;9.77;100.00;102549.78;5019280;28;20040;-75
2021/11/10 01:11:31;;;;;;;29.90;11.65;;;;;;;9.78;100.00;102546.34;5016823;28;20109;-76
2021/11/10 01:13:56;;;;;;;37.85;12.23;;;;;;;9.78;100.00;102547.22;5027360;28;20120;-76
2021/11/10 01:16:23;;;;;;;35.20;12.13;;;;;;;9.82;100.00;102536.84;5023858;28;20035;-77
2021/11/10 01:18:48;;;;;;;28.50;11.68;;;;;;;9.78;100.00;102541.09;5018524;28;20505;-76
2021/11/10 01:21:14;;;;;;;36.95;13.35;;;;;;;9.76;100.00;102542.72;5030712;28;20018;-75
2021/11/10 01:23:39;;;;;;;40.10;13.32;;;;;;;9.75;100.00;102547.09;5037159;28;20073;-77
2021/11/10 01:26:04;;;;;;;42.33;14.40;;;;;;;9.74;100.00;102531.22;5031460;28;20042;-77
2021/11/10 01:28:30;;;;;;;38.17;13.88;;;;;;;9.74;100.00;102532.16;5023157;28;20044;-76
2021/11/10 01:30:55;;;;;;;42.92;13.95;;;;;;;9.72;100.00;102527.63;5028393;28;20029;-77
2021/11/10 01:33:20;;;;;;;38.20;14.45;;;;;;;9.73;100.00;102534.69;5029147;28;20041;-76
2021/11/10 01:35:46;;;;;;;44.30;14.60;;;;;;;9.72;100.00;102525.00;5033284;28;20174;-76
2021/11/10 01:38:11;;;;;;;47.08;15.75;;;;;;;9.71;100.00;102526.75;5026735;28;20049;-76
2021/11/10 01:40:36;;;;;;;48.42;16.08;;;;;;;9.71;100.00;102513.59;5033460;28;20147;-77
2021/11/10 01:43:17;;;;;;;35.20;13.10;;;;;;;9.73;100.00;102508.41;5032376;28;20397;-78
2021/11/10 01:45:43;;;;;;;39.13;13.82;;;;;;;9.73;100.00;102505.78;5036464;28;20056;-77
2021/11/10 01:48:09;;;;;;;39.78;14.48;;;;;;;9.73;100.00;102497.91;5028192;28;20048;-77
2021/11/10 01:50:34;;;;;;;43.65;13.63;;;;;;;9.70;100.00;102501.28;5021360;28;20033;-75
2021/11/10 01:53:00;;;;;;;38.03;13.27;;;;;;;9.70;100.00;102493.41;5034073;28;20021;-77
2021/11/10 01:55:27;;;;;;;33.75;12.35;;;;;;;9.71;100.00;102482.06;5025018;28;20551;-77
2021/11/10 01:57:53;;;;;;;45.25;14.35;;;;;;;9.72;100.00;102470.69;5016188;28;20058;-76
2021/11/10 02:00:27;;;;;;;39.83;14.00;;;;;;;9.76;100.00;102469.13;5029116;28;20474;-78
2021/11/10 02:02:53;;;;;;;45.58;14.30;;;;;;;9.71;100.00;102473.25;5017243;28;20510;-77
2021/11/10 02:05:20;;;;;;;50.45;15.50;;;;;;;9.68;100.00;102474.00;5021823;28;20036;-76
2021/11/10 02:07:46;;;;;;;48.47;14.32;;;;;;;9.66;100.00;102470.44;5030260;28;20559;-76
2021/11/10 02:10:14;;;;;;;40.50;14.23;;;;;;;9.64;100.00;102466.81;5023639;28;20046;-76
2021/11/10 02:12:41;;;;;;;49.80;14.88;;;;;;;9.66;100.00;102472.13;5027104;28;20087;-76
2021/11/10 02:15:09;;;;;;;46.60;13.60;;;;;;;9.62;100.00;102460.59;5028390;28;20474;-75
2021/11/10 02:17:35;;;;;;;41.85;14.07;;;;;;;9.64;100.00;102463.28;5024100;28;20045;-77
2021/11/10 02:20:04;;;;;;;51.47;14.88;;;;;;;9.67;100.00;102464.34;5024759;28;20183;-78
2021/11/10 02:22:31;;;;;;;47.65;14.95;;;;;;;9.66;100.00;102457.28;5033512;28;20440;-75
2021/11/10 02:24:57;;;;;;;53.53;15.57;;;;;;;9.67;100.00;102456.47;5028952;28;20048;-77
2021/11/10 02:27:26;;;;;;;48.97;15.52;;;;;;;9.65;100.00;102465.09;5031699;28;20030;-76
2021/11/10 02:29:52;;;;;;;55.42;15.57;;;;;;;9.62;100.00;102461.50;5024107;28;20139;-75
2021/11/10 02:32:18;;;;;;;48.03;15.95;;;;;;;9.61;100.00;102466.69;5023863;28;20026;-75
2021/11/10 02:34:45;;;;;;;57.17;15.48;;;;;;;9.61;100.00;102477.19;5016266;28;20049;-76
2021/11/10 02:37:17;;;;;;;48.17;14.80;;;;;;;9.60;100.00;102472.75;5025874;28;20120;-76
2021/11/10 02:39:42;;;;;;;47.50;14.30;;;;;;;9.60;100.00;102478.94;5027461;28;20026;-76
2021/11/10 02:42:08;;;;;;;45.72;13.95;;;;;;;9.62;100.00;102473.75;5014938;28;20466;-76
2021/11/10 02:44:34;;;;;;;50.53;15.93;;;;;;;9.60;100.00;102459.63;5022824;28;20547;-75
2021/11/10 02:47:00;;;;;;;49.70;15.35;;;;;;;9.61;100.00;102458.78;5019146;28;20444;-75
2021/11/10 02:49:26;;;;;;;50.00;15.68;;;;;;;9.60;100.00;102451.72;5022213;28;20045;-76
2021/11/10 02:52:03;;;;;;;45.30;14.52;;;;;;;9.58;100.00;102456.03;5025277;28;20101;-75
2021/11/10 02:54:31;;;;;;;44.10;14.70;;;;;;;9.60;100.00;102449.09;5025977;28;20045;-75
2021/11/10 02:56:59;;;;;;;44.85;14.80;;;;;;;9.61;100.00;102445.66;5033749;28;20029;-76
2021/11/10 02:59:24;;;;;;;53.75;17.27;;;;;;;9.61;99.92;102449.16;5021111;28;20060;-75
2021/11/10 03:01:51;;;;;;;61.42;17.65;;;;;;;9.60;99.79;102449.09;5022474;28;20072;-77
2021/11/10 03:04:29;;;;;;;62.47;18.83;;;;;;;9.56;100.00;102444.53;5029553;28;20104;-77
2021/11/10 03:06:56;;;;;;;50.45;17.67;;;;;;;9.59;100.00;102450.84;5014613;28;20026;-77
2021/11/10 03:09:25;;;;;;;56.72;17.88;;;;;;;9.60;100.00;102456.97;5021868;28;20029;-75
2021/11/10 03:11:53;;;;;;;56.85;19.77;;;;;;;9.61;99.90;102459.69;5021624;28;20021;-75
2021/11/10 03:14:19;;;;;;;55.00;18.05;;;;;;;9.58;99.75;102453.41;5023965;28;20064;-76
2021/11/10 03:16:44;;;;;;;58.05;18.20;;;;;;;9.56;99.99;102458.59;5024057;28;20030;-75
2021/11/10 03:19:10;;;;;;;59.22;19.80;;;;;;;9.59;100.00;102455.19;5015691;28;20026;-77
2021/11/10 03:21:36;;;;;;;60.28;19.23;;;;;;;9.57;100.00;102454.22;5032365;28;20021;-76
2021/11/10 03:24:03;;;;;;;50.30;17.23;;;;;;;9.55;99.99;102445.34;5027683;28;20363;-76
2021/11/10 03:26:30;;;;;;;59.60;18.40;;;;;;;9.55;99.72;102451.53;5018691;28;20041;-76
2021/11/10 03:28:56;;;;;;;57.05;17.60;;;;;;;9.54;99.91;102454.09;5024221;28;20473;-76
2021/11/10 03:31:21;;;;;;;54.55;17.05;;;;;;;9.51;100.00;102446.03;5032335;28;20060;-76
2021/11/10 03:33:47;;;;;;;43.05;15.35;;;;;;;9.50;99.94;102452.16;5026628;28;20033;-75
2021/11/10 03:36:14;;;;;;;49.97;15.27;;;;;;;9.50;100.00;102450.41;5022610;28;20033;-75
2021/11/10 03:38:40;;;;;;;42.03;14.60;;;;;;;9.50;100.00;102460.03;5027845;28;20044;-74
2021/11/10 03:41:05;;;;;;;47.90;16.13;;;;;;;9.50;100.00;102455.66;5026327;28;20417;-76
2021/11/10 03:43:30;;;;;;;48.50;15.15;;;;;;;9.48;100.00;102445.91;5033953;28;20029;-76
2021/11/10 03:45:56;;;;;;;45.47;14.70;;;;;;;9.49;100.00;102463.47;5032491;28;20489;-76
2021/11/10 03:48:21;;;;;;;48.60;15.13;;;;;;;9.48;100.00;102456.41;5027802;28;20034;-77
2021/11/10 03:50:47;;;;;;;44.97;15.23;;;;;;;9.45;100.00;102458.09;5028154;28;20057;-76
2021/11/10 03:53:13;;;;;;;47.40;15.70;;;;;;;9.44;100.00;102456.28;5031251;28;20077;-76
2021/11/10 03:55:40;;;;;;;55.35;14.77;;;;;;;9.45;100.00;102462.44;5027256;28;20032;-77
2021/11/10 03:58:10;;;;;;;49.28;14.45;;;;;;;9.43;100.00;102464.09;5021814;28;20497;-77
2021/11/10 04:00:35;;;;;;;46.65;14.50;;;;;;;9.43;100.00;102462.34;5020376;28;20048;-77
2021/11/10 04:03:01;;;;;;;47.60;13.48;;;;;;;9.44;100.00;102463.25;5032303;28;20060;-75
2021/11/10 04:05:27;;;;;;;46.40;14.45;;;;;;;9.43;100.00;102457.09;5028319;28;20044;-76
2021/11/10 04:07:52;;;;;;;47.88;13.93;;;;;;;9.40;100.00;102459.59;5021784;28;20025;-76
2021/11/10 04:10:18;;;;;;;47.13;13.90;;;;;;;9.40;100.00;102458.66;5018785;28;20527;-77
2021/11/10 04:12:43;;;;;;;46.38;13.38;;;;;;;9.41;100.00;102469.28;5024288;28;20454;-77
2021/11/10 04:15:09;;;;;;;45.70;13.30;;;;;;;9.42;100.00;102463.16;5022933;28;20037;-76
2021/11/10 04:17:35;;;;;;;46.47;13.35;;;;;;;9.43;100.00;102467.63;5015449;28;20029;-75
2021/11/10 04:20:00;;;;;;;38.67;12.85;;;;;;;9.40;100.00;102467.47;5018279;28;20033;-76
2021/11/10 04:22:25;;;;;;;41.13;12.15;;;;;;;9.40;100.00;102467.47;5022056;28;20430;-76
2021/11/10 04:24:52;;;;;;;37.38;13.18;;;;;;;9.40;100.00;102470.09;5024547;28;20129;-76
2021/11/10 04:27:19;;;;;;;49.50;14.10;;;;;;;9.38;100.00;102476.09;5024669;28;20033;-77
2021/11/10 04:29:49;;;;;;;43.00;12.20;;;;;;;9.39;100.00;102477.91;5032628;28;20036;-77
2021/11/10 04:32:15;;;;;;;37.80;11.77;;;;;;;9.37;100.00;102480.47;5037202;28;20035;-75
2021/11/10 04:34:41;;;;;;;36.28;13.07;;;;;;;9.37;100.00;102471.66;5024752;28;20117;-78
2021/11/10 04:37:10;;;;;;;36.63;12.10;;;;;;;9.35;100.00;102471.59;5031796;28;20453;-76
2021/11/10 04:39:35;;;;;;;39.95;13.90;;;;;;;9.35;100.00;102473.34;5019830;28;20061;-76
2021/11/10 04:42:00;;;;;;;36.10;13.07;;;;;;;9.34;100.00;102469.78;5018856;28;20402;-77
2021/11/10 04:44:26;;;;;;;36.75;11.55;;;;;;;9.33;100.00;102470.63;5015500;28;20096;-75
2021/11/10 04:46:53;;;;;;;36.35;12.82;;;;;;;9.32;100.00;102474.09;5013434;28;20030;-76
2021/11/10 04:49:19;;;;;;;43.72;11.95;;;;;;;9.32;100.00;102478.44;5020463;28;20040;-76
2021/11/10 04:51:45;;;;;;;41.03;10.48;;;;;;;9.32;100.00;102476.72;5028206;28;20109;-76
2021/11/10 04:54:13;;;;;;;33.22;11.20;;;;;;;9.33;100.00;102473.25;5027430;28;20099;-77
2021/11/10 04:56:39;;;;;;;34.20;11.15;;;;;;;9.35;100.00;102484.75;5020964;28;20038;-76
2021/11/10 04:59:06;;;;;;;29.23;11.63;;;;;;;9.37;100.00;102482.19;5021917;28;20451;-76
2021/11/10 05:01:38;;;;;;;40.88;11.25;;;;;;;9.37;100.00;102482.19;5028486;28;20076;-75
2021/11/10 05:04:04;;;;;;;36.83;11.60;;;;;;;9.36;100.00;102481.28;5018810;28;20022;-77
2021/11/10 05:06:30;;;;;;;31.17;10.75;;;;;;;9.36;100.00;102485.63;5035139;28;20068;-76
2021/11/10 05:08:56;;;;;;;42.22;11.35;;;;;;;9.37;99.39;102475.22;5022027;28;20053;-76
2021/11/10 05:11:21;;;;;;;36.15;10.65;;;;;;;9.34;99.62;102474.16;5033884;28;20091;-77
2021/11/10 05:13:47;;;;;;;35.63;11.18;;;;;;;9.33;99.13;102470.63;5028460;28;20033;-77
2021/11/10 05:16:12;;;;;;;33.28;10.60;;;;;;;9.30;98.91;102483.59;5043046;28;20067;-76
2021/11/10 05:18:38;;;;;;;28.73;10.20;;;;;;;9.26;99.09;102477.34;5035734;28;20030;-76
2021/11/10 05:21:03;;;;;;;34.92;10.15;;;;;;;9.24;99.48;102481.59;5036171;28;20037;-77
2021/11/10 05:23:29;;;;;;;40.80;11.95;;;;;;;9.24;99.81;102478.06;5029196;28;20025;-75
2021/11/10 05:25:54;;;;;;;32.55;11.05;;;;;;;9.22;100.00;102477.09;5030115;28;20045;-76
2021/11/10 05:28:19;;;;;;;37.20;10.48;;;;;;;9.21;100.00;102485.78;5033575;28;20476;-77
2021/11/10 05:30:45;;;;;;;32.65;10.85;;;;;;;9.18;100.00;102477.78;5031729;28;20034;-77
2021/11/10 05:33:10;;;;;;;29.90;9.35;;;;;;;9.16;100.00;102475.06;5032619;28;20032;-76
2021/11/10 05:35:36;;;;;;;32.13;9.95;;;;;;;9.16;100.00;102479.44;5029722;28;20588;-75
2021/11/10 05:38:01;;;;;;;36.08;10.52;;;;;;;9.16;100.00;102476.81;5028828;28;20029;-77
2021/11/10 05:40:27;;;;;;;28.55;10.57;;;;;;;9.16;100.00;102471.56;5031509;28;20095;-77
2021/11/10 05:42:52;;;;;;;30.02;9.98;;;;;;;9.15;100.00;102475.88;5032984;28;20039;-76
2021/11/10 05:45:18;;;;;;;30.70;9.52;;;;;;;9.15;100.00;102475.00;5022607;28;20034;-76
2021/11/10 05:47:43;;;;;;;37.78;10.27;;;;;;;9.17;100.00;102475.97;5034803;28;20027;-76
2021/11/10 05:50:10;;;;;;;31.08;10.32;;;;;;;9.15;100.00;102480.25;5040339;28;20034;-77
2021/11/10 05:52:36;;;;;;;32.35;11.68;;;;;;;9.14;100.00;102479.34;5031880;28;20104;-76
2021/11/10 05:55:04;;;;;;;30.95;10.52;;;;;;;9.16;100.00;102484.69;5046355;28;20033;-78
2021/11/10 05:57:30;;;;;;;32.58;11.25;;;;;;;9.15;100.00;102489.03;5031947;28;20053;-75
2021/11/10 05:59:55;;;;;;;27.63;11.93;;;;;;;9.15;100.00;102498.63;5028537;28;20081;-79
2021/11/10 06:02:21;;;;;;;33.53;11.02;;;;;;;9.13;100.00;102495.03;5030891;28;20079;-76
2021/11/10 06:04:47;;;;;;;29.17;10.80;;;;;;;9.13;100.00;102492.41;5029471;28;20405;-77
2021/11/10 06:07:12;;;;;;;29.23;11.70;;;;;;;9.11;100.00;102493.25;5030804;28;20049;-77
2021/11/10 06:09:38;;;;;;;33.22;10.93;;;;;;;9.10;100.00;102488.81;5025693;28;20084;-77
2021/11/10 06:12:04;;;;;;;22.35;10.23;;;;;;;9.09;100.00;102494.88;5032409;28;20500;-77
2021/11/10 06:14:30;;;;;;;35.17;10.77;;;;;;;9.08;100.00;102498.31;5027576;28;20042;-77
2021/11/10 06:16:56;;;;;;;30.50;10.88;;;;;;;9.07;100.00;102501.75;5031652;28;20025;-79
2021/11/10 06:19:23;;;;;;;33.28;11.10;;;;;;;9.06;100.00;102492.13;5026388;28;20465;-86
2021/11/10 06:21:49;;;;;;;33.65;11.02;;;;;;;9.04;100.00;102499.00;5029069;28;20029;-86
2021/11/10 06:24:17;;;;;;;32.05;10.13;;;;;;;9.04;100.00;102503.34;5028948;28;20021;-77
2021/11/10 06:26:43;;;;;;;32.03;11.20;;;;;;;9.05;100.00;102503.44;5033878;28;20096;-75
2021/11/10 06:29:08;;;;;;;31.75;11.68;;;;;;;9.02;100.00;102505.91;5025285;28;20503;-76
2021/11/10 06:31:33;;;;;;;33.88;11.35;;;;;;;9.00;100.00;102510.16;5031411;28;20466;-75
2021/11/10 06:33:59;;;;;;;26.63;10.13;;;;;;;9.01;100.00;102514.59;5023251;28;20718;-77
2021/11/10 06:36:24;;;;;;;25.88;10.80;;;;;;;9.00;100.00;102506.66;5036447;28;20414;-76
2021/11/10 06:38:50;;;;;;;34.17;10.52;;;;;;;8.99;100.00;102503.09;5032458;28;20026;-76
2021/11/10 06:41:18;;;;;;;36.20;11.05;;;;;;;8.99;100.00;102504.84;5031441;28;20057;-76
2021/11/10 06:43:45;;;;;;;37.33;10.68;;;;;;;8.98;100.00;102511.84;5032033;28;20073;-76
2021/11/10 06:46:11;;;;;;;28.65;9.20;;;;;;;9.00;100.00;102509.28;5033106;28;20470;-77
2021/11/10 06:48:36;;;;;;;37.00;11.13;;;;;;;8.98;98.72;102506.59;5034245;28;20084;-77
2021/11/10 06:51:02;;;;;;;24.35;9.93;;;;;;;8.93;97.63;102502.81;5025812;28;20541;-78
2021/11/10 06:53:27;;;;;;;30.35;11.13;;;;;;;8.95;97.77;102501.16;5031776;28;20037;-76
2021/11/10 06:55:52;;;;;;;33.78;12.43;;;;;;;8.91;97.62;102505.38;5034711;28;20057;-78
2021/11/10 06:58:18;;;;;;;27.10;11.02;;;;;;;8.89;96.77;102500.88;5034302;28;20029;-78
2021/11/10 07:00:43;;;;;;;26.55;10.80;;;;;;;8.86;96.83;102498.09;5030048;28;20041;-76
2021/11/10 07:03:09;;;;;;;31.80;12.15;;;;;;;8.86;96.86;102503.34;5031168;28;20030;-79
2021/11/10 07:05:34;;;;;;;26.75;11.57;;;;;;;8.89;96.83;102511.38;5021188;28;20065;-80
2021/11/10 07:07:59;;;;;;;28.10;11.88;;;;;;;8.83;96.83;102516.28;5019365;28;20037;-80
2021/11/10 07:10:25;;;;;;;33.53;11.35;;;;;;;8.82;96.85;102510.16;5028388;28;20037;-79
2021/11/10 07:12:50;;;;;;;34.28;12.02;;;;;;;8.81;96.76;102513.59;5028638;28;20025;-78
2021/11/10 07:15:16;;;;;;;34.30;11.10;;;;;;;8.81;97.18;102520.59;5027017;28;20030;-79
2021/11/10 07:17:41;;;;;;;30.40;11.52;;;;;;;8.80;97.02;102524.03;5022106;28;20021;-79
2021/11/10 07:20:07;;;;;;;28.73;11.00;;;;;;;8.77;97.13;102527.38;5033851;28;20480;-79
2021/11/10 07:22:32;;;;;;;31.60;11.27;;;;;;;8.79;97.02;102546.75;5033577;28;20064;-79
2021/11/10 07:24:58;;;;;;;33.53;11.48;;;;;;;8.77;96.94;102537.88;5024145;28;20058;-79
2021/11/10 07:27:24;;;;;;;27.83;10.30;;;;;;;8.81;96.64;102555.59;5032904;28;20438;-78
2021/11/10 07:29:49;;;;;;;32.13;11.93;;;;;;;8.79;96.55;102549.38;5032491;28;20029;-78
2021/11/10 07:32:14;;;;;;;29.92;10.63;;;;;;;8.72;96.46;102556.03;5031859;28;20168;-78
2021/11/10 07:34:39;;;;;;;29.55;11.63;;;;;;;8.72;96.64;102550.78;5031877;28;20029;-77
2021/11/10 07:37:05;;;;;;;30.35;11.52;;;;;;;8.74;96.72;102546.50;5026747;28;20025;-78
2021/11/10 07:39:32;;;;;;;30.77;11.00;;;;;;;8.72;96.49;102545.53;5034525;28;20041;-79
2021/11/10 07:41:58;;;;;;;31.55;11.18;;;;;;;8.69;96.32;102539.22;5035647;28;20059;-79
2021/11/10 07:44:23;;;;;;;31.15;10.52;;;;;;;8.74;96.19;102533.38;5027577;28;20037;-79
2021/11/10 07:47:06;;;;;;;26.92;10.60;;;;;;;8.75;96.41;102524.69;5033835;28;20496;-79
2021/11/10 07:49:32;;;;;;;26.60;11.00;;;;;;;8.73;96.24;102505.31;5026959;28;20033;-79
2021/11/10 07:51:59;;;;;;;35.15;11.23;;;;;;;8.70;96.38;102505.19;5015067;28;20042;-78
2021/11/10 07:54:25;;;;;;;30.23;10.93;;;;;;;8.80;96.54;102500.41;5028084;28;20548;-76
2021/11/10 07:56:50;;;;;;;30.75;11.45;;;;;;;8.83;96.24;102495.28;5020632;28;20084;-78
2021/11/10 07:59:15;;;;;;;33.53;11.65;;;;;;;8.86;96.01;102495.47;5042778;28;20017;-74
2021/11/10 08:01:41;;;;;;;31.45;10.63;;;;;;;8.89;96.42;102493.88;5036938;28;20096;-76
2021/11/10 08:04:06;;;;;;;27.73;11.27;;;;;;;8.93;96.31;102498.47;5033357;28;20031;-87
2021/11/10 08:06:32;;;;;;;33.13;11.82;;;;;;;8.91;96.14;102514.97;5033993;28;20025;-83
2021/11/10 08:08:58;;;;;;;34.70;10.98;;;;;;;8.97;96.56;102536.28;5020897;28;20038;-85
2021/11/10 08:11:23;;;;;;;29.33;10.48;;;;;;;8.98;96.22;102548.59;5035089;28;20034;-86
2021/11/10 08:13:49;;;;;;;38.28;11.50;;;;;;;8.98;96.97;102553.84;5033493;28;20113;-86
2021/11/10 08:16:14;;;;;;;31.83;10.88;;;;;;;9.00;96.06;102546.03;5036420;28;20416;-84
2021/11/10 08:18:40;;;;;;;28.88;11.35;;;;;;;9.01;96.03;102537.34;5027862;28;20033;-86
2021/11/10 08:21:05;;;;;;;34.30;12.05;;;;;;;9.02;96.20;102526.91;5033868;28;20108;-86
2021/11/10 08:23:32;;;;;;;37.85;12.30;;;;;;;9.05;96.03;102519.19;5034634;28;20465;-85
2021/11/10 08:25:58;;;;;;;30.92;11.38;;;;;;;9.04;95.43;102517.38;5033126;28;20053;-85
2021/11/10 08:28:25;;;;;;;43.00;11.95;;;;;;;8.98;95.65;102532.84;5035341;28;20029;-76
2021/11/10 08:30:51;;;;;;;35.17;12.45;;;;;;;9.02;95.42;102529.53;5033748;28;20083;-76
2021/11/10 08:33:17;;;;;;;35.08;12.60;;;;;;;9.03;95.34;102520.81;5027855;28;20029;-75
2021/11/10 08:35:43;;;;;;;29.30;11.65;;;;;;;9.05;95.49;102520.94;5033287;28;20029;-77
2021/11/10 08:38:08;;;;;;;31.63;11.25;;;;;;;9.10;95.26;102522.94;5033594;28;20048;-77
2021/11/10 08:40:34;;;;;;;44.72;11.13;;;;;;;9.15;94.66;102519.66;5024682;28;20034;-77
2021/11/10 08:43:00;;;;;;;31.15;11.30;;;;;;;9.21;94.12;102504.16;5032844;28;20033;-77
2021/11/10 08:45:29;;;;;;;28.77;11.23;;;;;;;9.22;94.12;102520.00;5031403;28;20029;-77
2021/11/10 08:47:58;;;;;;;39.35;11.90;;;;;;;9.25;94.45;102516.63;5033354;28;20052;-78
2021/11/10 08:50:26;;;;;;;30.38;10.38;;;;;;;9.31;93.18;102522.19;5031792;28;20030;-77
2021/11/10 08:52:53;;;;;;;27.42;10.43;;;;;;;9.27;92.72;102509.75;5031901;28;20029;-76
2021/11/10 08:55:18;;;;;;;40.00;10.52;;;;;;;9.35;92.39;102513.63;5030796;28;20378;-78
2021/11/10 08:57:46;;;;;;;26.48;10.25;;;;;;;9.45;91.57;102509.72;5030186;28;20112;-76
2021/11/10 09:00:15;;;;;;;31.67;10.13;;;;;;;9.48;92.23;102519.47;5032159;28;20053;-78
2021/11/10 09:02:41;;;;;;;29.25;10.55;;;;;;;9.49;92.24;102522.19;5033389;28;20029;-78
2021/11/10 09:05:07;;;;;;;33.10;10.32;;;;;;;9.50;91.86;102528.34;5030614;28;20029;-78
2021/11/10 09:07:34;;;;;;;29.17;10.10;;;;;;;9.52;90.87;102524.97;5033403;28;20112;-78
2021/11/10 09:09:59;;;;;;;35.42;11.18;;;;;;;9.52;90.18;102522.34;5032081;28;20386;-78
2021/11/10 09:12:26;;;;;;;50.88;10.82;;;;;;;9.50;90.19;102529.25;5032110;28;20029;-78
2021/11/10 09:14:51;;;;;;;31.13;10.55;;;;;;;9.48;90.25;102528.25;5032346;28;20041;-77
2021/11/10 09:17:17;;;;;;;35.55;10.65;;;;;;;9.46;90.16;102532.56;5030956;28;20044;-78
2021/11/10 09:19:42;;;;;;;29.98;10.95;;;;;;;9.49;89.95;102527.44;5032122;28;20032;-78
2021/11/10 09:22:08;;;;;;;27.60;10.88;;;;;;;9.51;89.38;102524.88;5029037;28;20088;-77
2021/11/10 09:24:35;;;;;;;37.28;12.52;;;;;;;9.53;89.04;102525.88;5031943;28;20025;-76
2021/11/10 09:27:01;;;;;;;34.00;10.60;;;;;;;9.52;88.42;102521.44;5033671;28;20363;-78
2021/11/10 09:29:27;;;;;;;20.95;10.23;;;;;;;9.53;88.24;102517.97;5033677;28;20099;-78
2021/11/10 09:31:53;;;;;;;30.48;10.88;;;;;;;9.53;88.18;102517.97;5030877;28;20026;-77
2021/11/10 09:34:19;;;;;;;29.23;9.90;;;;;;;9.59;88.67;102513.00;5029768;28;20017;-76
2021/11/10 09:36:47;;;;;;;31.85;10.18;;;;;;;9.60;88.18;102510.47;5033252;28;20056;-78
2021/11/10 09:39:18;;;;;;;26.25;10.25;;;;;;;9.69;88.11;102515.25;5033284;28;20075;-78
2021/11/10 09:41:50;;;;;;;31.00;10.70;;;;;;;9.79;88.61;102521.84;5030480;28;20033;-78
2021/11/10 09:44:16;;;;;;;31.10;11.43;;;;;;;9.91;88.21;102524.13;5022979;28;20076;-77
2021/11/10 09:46:42;;;;;;;28.60;10.18;;;;;;;10.02;87.35;102524.63;5032455;28;20040;-78
2021/11/10 09:49:10;;;;;;;27.13;9.55;;;;;;;10.06;85.91;102527.47;5034501;28;20048;-77
2021/11/10 09:51:36;;;;;;;27.38;10.32;;;;;;;10.04;85.69;102525.63;5032349;28;20045;-77
2021/11/10 09:54:05;;;;;;;21.20;8.30;;;;;;;10.19;85.74;102522.78;5028081;28;20071;-77
2021/11/10 09:56:32;;;;;;;27.55;9.75;;;;;;;10.19;84.47;102514.91;5033922;28;20060;-78
2021/11/10 09:58:57;;;;;;;25.85;10.00;;;;;;;10.29;84.31;102522.34;5033130;28;20025;-78
2021/11/10 10:01:23;;;;;;;28.20;9.38;;;;;;;10.40;83.37;102512.34;5033740;28;20028;-78
2021/11/10 10:03:51;;;;;;;19.40;9.40;;;;;;;10.60;82.65;102511.47;5034735;28;20033;-78
2021/11/10 10:06:17;;;;;;;24.80;8.73;;;;;;;10.84;82.12;102504.56;5031577;28;20021;-77
2021/11/10 10:08:44;;;;;;;23.80;9.55;;;;;;;11.05;80.45;102504.56;5022280;28;20029;-78
2021/11/10 10:11:10;;;;;;;30.10;9.88;;;;;;;11.21;80.38;102500.84;5021015;28;20095;-77
2021/11/10 10:13:36;;;;;;;19.38;8.63;;;;;;;11.16;78.88;102503.25;5027180;28;20038;-78
2021/11/10 10:16:02;;;;;;;19.90;8.88;;;;;;;11.39;79.22;102516.47;5031843;28;20033;-76
2021/11/10 10:18:29;;;;;;;33.90;9.30;;;;;;;11.42;78.47;102509.59;5035581;28;20025;-76
2021/11/10 10:21:01;;;;;;;27.98;9.45;;;;;;;11.70;78.49;102517.69;5032208;28;20025;-76
2021/11/10 10:23:29;;;;;;;27.40;9.25;;;;;;;11.80;76.90;102511.91;5032528;28;20065;-76
2021/11/10 10:26:03;;;;;;;25.17;9.48;;;;;;;11.87;75.80;102507.78;5031239;28;20128;-75
2021/11/10 10:28:34;;;;;;;23.17;8.88;;;;;;;11.94;75.71;102517.75;5033710;28;20030;-76
2021/11/10 10:31:25;;;;;;;21.17;9.18;;;;;;;11.97;75.88;102516.13;5033669;28;20030;-77
2021/11/10 10:34:00;;;;;;;21.30;10.25;;;;;;;12.04;75.24;102525.19;5026563;28;20536;-77
2021/11/10 10:36:28;;;;;;;17.75;8.95;;;;;;;11.91;75.63;102517.59;5020051;28;20513;-77
2021/11/10 10:39:02;;;;;;;25.88;9.07;;;;;;;11.77;75.88;102514.44;5032296;28;20021;-76
2021/11/10 10:41:38;;;;;;;27.92;9.95;;;;;;;11.63;77.01;102522.72;5026918;28;20033;-76
2021/11/10 10:44:16;;;;;;;21.73;9.63;;;;;;;11.51;77.47;102516.06;5022744;28;20092;-76
2021/11/10 10:46:47;;;;;;;31.52;9.48;;;;;;;11.47;78.10;102523.84;5035283;28;20046;-76
2021/11/10 10:49:43;;;;;;;23.70;8.55;;;;;;;11.51;78.31;102526.63;5035231;28;20060;-76
2021/11/10 10:52:15;;;;;;;22.70;9.85;;;;;;;11.52;78.08;102526.69;5034397;28;20169;-76
2021/11/10 10:54:46;;;;;;;21.58;8.45;;;;;;;11.54;78.87;102522.34;5031925;28;20065;-75
2021/11/10 10:57:14;;;;;;;28.42;9.75;;;;;;;11.55;78.43;102518.88;5032532;28;20061;-77
2021/11/10 10:59:39;;;;;;;24.20;9.38;;;;;;;11.62;78.44;102520.03;5020311;28;20374;-76
2021/11/10 11:02:07;;;;;;;22.67;9.50;;;;;;;11.64;78.33;102518.38;5015261;28;20025;-77
2021/11/10 11:04:34;;;;;;;21.50;10.45;;;;;;;11.63;78.11;102511.28;5028879;28;20033;-77
2021/11/10 11:07:09;;;;;;;27.65;10.60;;;;;;;11.62;77.68;102512.13;5025907;28;20029;-75
2021/11/10 11:09:41;;;;;;;25.92;9.48;;;;;;;11.52;78.25;102507.34;5021291;28;20031;-77